Manhattan, NY

17:47 EST le 20 novembre 2014 (GMT -0500)
Murray Hill | Change Station
CLOSE
Current Station
Stations météorologiques personnelles
Location: New York, NY
Altitude: 98 ft
Stations météo à proximité

Alt. 98 ft 40.75 °N, 73.98 °W | Updated 10 seconds ago

Clear
Ciel dégagé
43.3 ° F
Paraît 43 ° F
N
2.0
Vent Variable Vent de Ouest
Gusts 14.0 mph

Aujourd'hui
Haut(e) -- | Bas -- ° F
--% Risque de précip.
Hier
Haut(e) -- | Bas -- ° F
Precip. -- pouce
6:48 AM 4:34 PM
Lune descendante, 3% visible
Pression 29.86 pouce
Visibilité 10.0 Miles terrestres
Nuages Ciel dégagé
Refroidissement éolien 43 ° F
Point de rosée 22 ° F
Humidité 43%
Précipitations 0.00 pouce
Profondeur de la couche neigeuse Non disponible.
UV 0 sur 12
Pollen .10 sur 12
Qualité de l'air Non disponible.
Flu Activity Non disponible.
METAR KNYC 202151Z AUTO VRB03G18KT 10SM CLR 07/M08 A2989 RMK AO2 SLP112 T00671083 $

More Conditions Fewer Conditions

Pression 29.86 pouce
Visibilité 10.0 Miles terrestres
Nuages Ciel dégagé
Refroidissement éolien 43 ° F
Point de rosée 22 ° F
Humidité 43%
Précipitations 0.00 pouce
Profondeur de la couche neigeuse Non disponible.
UV 0 sur 12
Pollen .10 sur 12
Qualité de l'air Non disponible.
Flu Activity Non disponible.
METAR KNYC 202151Z AUTO VRB03G18KT 10SM CLR 07/M08 A2989 RMK AO2 SLP112 T00671083 $

More Conditions Fewer Conditions

10-Day Weather Forecast

Almanac

Astronomie

Nov. 20, 2014 Lever Coucher
Temps réel
Crépuscule civil
Crépuscule nautique
Crépuscule astronomique
Lune
Durée de lumière visible
Longueur du jour
Tomorrow will be .
, % of the Moon is Illuminated

Extrêmes aujourd'hui

State Highs State Lows

Community

WunderPhotos

Upload Photos

1,772,539 Photos téléchargées !

WunderBlogs® & News

Nearby

Qualité de l'air

  Qualité de l'air Indice de la qualité de l'air Polluant
Not available.

Épaisseur de neige

Station Depth Altitude

Activité sismique

Ville Distance Mag. Time & Date
Minimum magnitude displayed is 2.5.

Températures des eaux côtières

Lieu Température

Stations météo à proximité